Time;durP1;ratioP1;P1;durP2;ratioP2;P2;SDS_P1;SDS_P2;PMS_P1;PMS_P2;Temp;Humidity;BMP_temperature;BMP_pressure;BME280_temperature;BME280_humidity;BME280_pressure;Samples;Min_cycle;Max_cycle;Signal;HPM_P1;HPM_P2
2022/01/24 00:00:22;;;;;;;31.30;14.50;;;;;;;-4.45;74.05;99840.44;25063;1315;3055144;-65
2022/01/24 00:02:52;;;;;;;21.30;9.30;;;;;;;-4.42;74.29;99853.45;25096;1314;3028633;-71
2022/01/24 00:05:21;;;;;;;33.50;13.70;;;;;;;-3.79;72.78;99841.27;25081;1314;3026791;-64
2022/01/24 00:07:50;;;;;;;29.30;14.00;;;;;;;-3.36;70.91;99831.98;25067;1315;3055431;-70
2022/01/24 00:10:23;;;;;;;34.90;14.80;;;;;;;-3.38;70.49;99835.39;25086;1314;3026730;-70
2022/01/24 00:26:41;;;;;;;30.40;14.30;;;;;;;-3.85;71.58;99837.49;25079;1315;3054694;-72
2022/01/24 00:26:56;;;;;;;26.30;13.70;;;;;;;-4.24;72.52;99832.01;25042;1315;3048299;-73
2022/01/24 00:29:25;;;;;;;37.00;15.70;;;;;;;-4.25;72.78;99851.16;25081;1314;3026312;-67
2022/01/24 00:31:55;;;;;;;38.20;14.60;;;;;;;-4.22;72.46;99844.17;25085;1314;3056357;-66
2022/01/24 00:34:24;;;;;;;25.70;13.60;;;;;;;-4.16;72.26;99830.16;25069;1315;3027948;-68
2022/01/24 00:36:53;;;;;;;31.70;14.70;;;;;;;-4.30;72.49;99833.17;25073;1315;3026692;-66
2022/01/24 00:39:22;;;;;;;21.20;11.40;;;;;;;-4.19;72.30;99823.65;25055;1314;3058456;-65
2022/01/24 00:48:26;;;;;;;30.60;12.80;;;;;;;-4.39;72.84;99829.86;25073;1315;3056968;-68
2022/01/24 00:55:25;;;;;;;30.20;14.50;;;;;;;-4.40;73.10;99824.57;25101;1314;3051350;-69
2022/01/24 00:57:54;;;;;;;27.50;12.70;;;;;;;-4.25;72.50;99832.70;25043;1317;3026757;-72
2022/01/24 01:00:23;;;;;;;27.30;11.40;;;;;;;-4.34;72.56;99833.49;25045;1314;3054620;-63
2022/01/24 01:02:52;;;;;;;38.30;16.60;;;;;;;-4.48;73.11;99824.17;25108;1314;3026960;-67
2022/01/24 01:19:13;;;;;;;30.20;13.10;;;;;;;-4.48;73.10;99822.45;25059;1314;3052664;-69
2022/01/24 01:21:42;;;;;;;21.90;10.90;;;;;;;-4.36;72.49;99815.69;25130;1316;3026686;-67
2022/01/24 01:24:12;;;;;;;30.40;14.50;;;;;;;-4.39;73.02;99816.36;25112;1314;3047319;-69
2022/01/24 01:26:47;;;;;;;38.60;16.80;;;;;;;-4.44;72.72;99818.21;25120;1314;3026818;-68
2022/01/24 01:29:22;;;;;;;19.00;8.90;;;;;;;-4.31;72.91;99822.23;25085;1315;3054200;-68
2022/01/24 01:35:11;;;;;;;26.80;12.00;;;;;;;-3.05;68.60;99796.55;24928;1318;3049256;-68
2022/01/24 01:54:53;;;;;;;26.00;13.00;;;;;;;-3.79;70.22;99807.70;25068;1314;3056177;-71
2022/01/24 01:57:16;;;;;;;19.80;11.00;;;;;;;-3.86;70.16;99799.31;25053;1315;3052589;-66
2022/01/24 01:59:45;;;;;;;27.20;13.20;;;;;;;-3.95;70.50;99810.92;25150;1314;3052620;-69
2022/01/24 02:02:14;;;;;;;30.70;12.90;;;;;;;-4.04;70.94;99810.20;25080;1315;3026154;-69
2022/01/24 02:04:43;;;;;;;30.80;13.50;;;;;;;-3.82;70.14;99815.93;25078;1314;3048841;-72
2022/01/24 02:07:13;;;;;;;26.60;13.00;;;;;;;-3.81;70.17;99824.32;25091;1314;3029261;-66
2022/01/24 02:09:44;;;;;;;30.70;14.50;;;;;;;-3.78;70.49;99829.14;25095;1314;3056409;-69
2022/01/24 02:12:13;;;;;;;24.10;12.90;;;;;;;-3.71;69.77;99826.40;25072;1314;3028538;-67
2022/01/24 02:14:49;;;;;;;28.10;12.70;;;;;;;-3.72;70.01;99823.67;25085;1314;3026397;-69
2022/01/24 02:17:28;;;;;;;20.90;10.80;;;;;;;-3.78;70.06;99819.71;25088;1314;3053791;-65
2022/01/24 02:25:22;;;;;;;27.60;12.80;;;;;;;-3.80;69.39;99816.27;25073;1315;3052596;-73
2022/01/24 02:28:01;;;;;;;30.10;12.90;;;;;;;-3.75;69.41;99826.23;25057;1315;3053396;-71
2022/01/24 02:33:05;;;;;;;26.10;11.70;;;;;;;-3.68;69.21;99828.13;25687;1314;3049688;-68
2022/01/24 02:35:34;;;;;;;22.50;10.90;;;;;;;-3.58;68.66;99830.05;25685;1313;3025837;-68
2022/01/24 02:38:10;;;;;;;26.20;11.90;;;;;;;-3.54;68.46;99823.20;25140;1314;3055547;-71
2022/01/24 02:40:39;;;;;;;27.70;13.30;;;;;;;-3.69;68.50;99830.70;25095;1315;3048545;-70
2022/01/24 02:48:33;;;;;;;25.20;12.30;;;;;;;-3.48;68.06;99820.83;25124;1314;3071545;-74
2022/01/24 02:51:28;;;;;;;25.50;11.20;;;;;;;-3.44;67.80;99833.34;25100;1314;3026930;-73
2022/01/24 02:53:57;;;;;;;23.90;12.00;;;;;;;-3.57;67.90;99830.91;25107;1314;3053250;-71
2022/01/24 02:56:26;;;;;;;26.40;12.00;;;;;;;-3.65;69.02;99832.94;25104;1314;3026611;-71
2022/01/24 02:58:55;;;;;;;22.80;10.40;;;;;;;-3.57;69.10;99832.62;25128;1314;3027267;-69
2022/01/24 03:01:24;;;;;;;25.00;12.00;;;;;;;-3.51;68.64;99828.02;25088;1314;3054053;-62
2022/01/24 03:03:53;;;;;;;28.60;12.80;;;;;;;-3.48;68.00;99828.02;25080;1314;3026042;-65
2022/01/24 03:06:22;;;;;;;24.20;11.00;;;;;;;-3.57;68.34;99832.45;25095;1314;3050687;-71
2022/01/24 03:08:51;;;;;;;26.50;12.20;;;;;;;-3.57;68.43;99840.15;25101;1314;3026924;-67
2022/01/24 03:11:20;;;;;;;21.10;10.50;;;;;;;-3.84;69.45;99830.48;25047;1315;3070659;-69
2022/01/24 03:13:49;;;;;;;25.50;12.20;;;;;;;-3.63;68.46;99827.11;25111;1314;3026729;-67
2022/01/24 03:16:18;;;;;;;21.90;12.00;;;;;;;-3.57;68.20;99827.30;25087;1314;3026641;-66
2022/01/24 03:18:47;;;;;;;23.60;12.10;;;;;;;-3.66;68.46;99821.80;25083;1315;3070761;-67
2022/01/24 03:21:19;;;;;;;22.50;12.10;;;;;;;-3.56;68.04;99831.77;25113;1314;3026870;-65
2022/01/24 03:23:48;;;;;;;24.90;11.90;;;;;;;-3.55;68.09;99837.41;25100;1315;3052979;-63
2022/01/24 03:26:17;;;;;;;27.20;12.10;;;;;;;-3.66;68.38;99833.96;25039;1314;3026052;-72
2022/01/24 03:28:46;;;;;;;21.00;10.80;;;;;;;-3.66;67.92;99830.53;25103;1314;3055359;-68
2022/01/24 03:31:15;;;;;;;21.50;10.30;;;;;;;-3.74;67.97;99832.39;25075;1314;3026571;-66
2022/01/24 03:33:44;;;;;;;19.00;10.50;;;;;;;-3.53;67.69;99833.48;25049;1314;3049030;-64
2022/01/24 03:36:13;;;;;;;17.50;9.40;;;;;;;-3.56;67.27;99840.66;25050;1314;3029457;-69
2022/01/24 03:38:41;;;;;;;23.90;11.10;;;;;;;-3.58;67.27;99841.35;25049;1314;3058221;-66
2022/01/24 03:41:10;;;;;;;20.90;10.40;;;;;;;-3.68;67.77;99846.97;25074;1314;3028018;-67
2022/01/24 03:43:39;;;;;;;23.90;10.60;;;;;;;-3.68;67.95;99848.16;25083;1314;3056045;-67
2022/01/24 03:48:56;;;;;;;24.90;12.20;;;;;;;-3.74;67.83;99851.91;25042;1314;3053499;-69
2022/01/24 03:51:24;;;;;;;24.40;12.40;;;;;;;-3.85;68.18;99857.86;25055;1314;3050732;-66
2022/01/24 03:53:53;;;;;;;22.70;11.30;;;;;;;-3.80;68.29;99865.58;25066;1315;3029490;-67
2022/01/24 03:56:22;;;;;;;22.80;10.60;;;;;;;-3.79;68.15;99865.08;25092;1315;3054064;-65
2022/01/24 03:58:51;;;;;;;20.60;9.50;;;;;;;-3.82;67.83;99866.26;25072;1314;3026692;-69
2022/01/24 04:01:20;;;;;;;23.10;10.90;;;;;;;-3.73;67.84;99866.48;25068;1314;3027097;-70
2022/01/24 04:03:49;;;;;;;24.40;12.40;;;;;;;-3.91;68.04;99870.49;25092;1314;3050582;-69
2022/01/24 04:06:20;;;;;;;20.80;10.10;;;;;;;-3.87;68.39;99875.30;25070;1314;3029959;-69
2022/01/24 04:08:49;;;;;;;19.50;11.20;;;;;;;-3.78;68.11;99876.04;25116;1314;3050423;-63
2022/01/24 04:11:18;;;;;;;19.10;10.50;;;;;;;-3.74;67.84;99880.67;25079;1314;3026731;-68
2022/01/24 04:13:56;;;;;;;21.40;11.00;;;;;;;-3.75;67.88;99884.09;25090;1314;3071087;-68
2022/01/24 04:16:31;;;;;;;20.50;10.90;;;;;;;-3.84;68.17;99887.14;25024;1314;3048042;-66
2022/01/24 04:21:54;;;;;;;20.60;11.00;;;;;;;-3.84;67.98;99883.88;25063;1315;3051771;-68
2022/01/24 04:24:25;;;;;;;22.20;10.60;;;;;;;-3.80;68.17;99881.51;25088;1314;3027128;-65
2022/01/24 04:26:55;;;;;;;21.40;10.80;;;;;;;-3.78;68.08;99888.20;25130;1315;3026596;-71
2022/01/24 04:29:24;;;;;;;23.20;10.70;;;;;;;-3.82;68.07;99885.94;25075;1314;3029155;-69
2022/01/24 04:31:53;;;;;;;21.20;10.20;;;;;;;-3.81;68.64;99888.17;25105;1314;3027067;-66
2022/01/24 04:34:21;;;;;;;22.60;11.00;;;;;;;-3.73;68.34;99885.80;25086;1315;3051680;-68
2022/01/24 04:36:50;;;;;;;26.50;12.60;;;;;;;-3.83;69.13;99893.31;25060;1314;3026697;-69
2022/01/24 04:39:19;;;;;;;23.50;10.70;;;;;;;-3.77;68.90;99893.33;25062;1315;3055525;-70
2022/01/24 04:41:52;;;;;;;20.70;11.00;;;;;;;-3.85;69.36;99892.61;25070;1314;3026830;-65
2022/01/24 04:52:53;;;;;;;18.80;9.40;;;;;;;-3.88;69.67;99907.14;25091;1314;3055960;-64
2022/01/24 04:55:22;;;;;;;18.90;10.30;;;;;;;-3.99;70.26;99906.75;25045;1314;3049902;-67
2022/01/24 04:57:52;;;;;;;17.20;9.40;;;;;;;-3.98;70.24;99908.46;25052;1314;3026736;-63
2022/01/24 05:00:20;;;;;;;24.80;11.70;;;;;;;-4.03;70.65;99904.67;25068;1314;3026654;-64
2022/01/24 05:02:49;;;;;;;22.50;10.80;;;;;;;-4.10;70.79;99913.01;25080;1314;3052664;-67
2022/01/24 05:05:21;;;;;;;17.30;8.90;;;;;;;-4.17;71.05;99909.55;25037;1314;3026783;-66
2022/01/24 05:07:51;;;;;;;19.90;10.20;;;;;;;-4.08;70.66;99911.14;25083;1314;3056684;-72
2022/01/24 05:23:44;;;;;;;19.90;10.70;;;;;;;-3.87;69.00;99907.15;25077;1314;3051526;-69
2022/01/24 05:26:15;;;;;;;18.30;9.30;;;;;;;-3.90;68.90;99912.95;25103;1315;3026645;-66
2022/01/24 05:28:44;;;;;;;23.90;10.50;;;;;;;-4.05;69.40;99918.69;25054;1314;3071243;-72
2022/01/24 05:31:13;;;;;;;20.50;10.40;;;;;;;-4.05;69.72;99915.77;25065;1314;3026015;-69
2022/01/24 05:33:42;;;;;;;25.70;11.60;;;;;;;-4.05;69.76;99919.89;24861;1314;3285771;-69
2022/01/24 05:36:11;;;;;;;27.30;12.00;;;;;;;-3.92;69.33;99918.92;25076;1314;3027044;-63
2022/01/24 05:38:40;;;;;;;22.10;11.40;;;;;;;-4.02;69.59;99927.25;25073;1314;3054974;-64
2022/01/24 05:41:09;;;;;;;24.00;11.50;;;;;;;-4.04;69.63;99937.52;25110;1314;3027350;-71
2022/01/24 05:43:38;;;;;;;21.00;10.70;;;;;;;-4.00;69.37;99937.02;25085;1314;3052053;-72
2022/01/24 05:46:07;;;;;;;22.80;11.10;;;;;;;-3.98;69.42;99943.20;25102;1314;3026598;-74
2022/01/24 05:48:36;;;;;;;22.10;11.30;;;;;;;-4.17;71.45;99954.55;25097;1315;3058110;-67
2022/01/24 05:51:05;;;;;;;21.70;10.70;;;;;;;-4.05;71.94;99953.25;25050;1315;3029580;-67
2022/01/24 05:53:34;;;;;;;23.10;11.00;;;;;;;-4.04;70.94;99949.67;25077;1314;3054001;-68
2022/01/24 05:56:03;;;;;;;17.80;10.30;;;;;;;-3.92;71.10;99958.30;25082;1314;3027271;-68
2022/01/24 05:58:33;;;;;;;18.30;10.20;;;;;;;-3.74;70.63;99957.55;25121;1315;3054427;-67
2022/01/24 06:01:01;;;;;;;21.30;10.80;;;;;;;-3.86;70.28;99963.14;25071;1315;3026302;-73
2022/01/24 06:03:30;;;;;;;21.20;10.90;;;;;;;-3.94;70.48;99966.66;25096;1315;3050757;-66
2022/01/24 06:05:59;;;;;;;17.20;8.00;;;;;;;-3.78;70.02;99964.02;25111;1315;3029989;-66
2022/01/24 06:08:29;;;;;;;22.70;11.50;;;;;;;-3.91;69.93;99969.77;25117;1314;3069941;-72
2022/01/24 06:10:58;;;;;;;20.90;11.20;;;;;;;-3.97;70.34;99970.94;25093;1315;3026732;-65
2022/01/24 06:13:30;;;;;;;22.00;11.20;;;;;;;-3.96;70.43;99972.30;25078;1314;3051149;-63
2022/01/24 06:15:59;;;;;;;20.70;10.20;;;;;;;-3.96;70.65;99977.11;25074;1314;3026832;-70
2022/01/24 06:18:28;;;;;;;19.80;9.70;;;;;;;-4.11;70.35;99976.30;25068;1314;3026717;-73
2022/01/24 06:20:58;;;;;;;17.80;10.30;;;;;;;-4.04;71.01;99986.30;25113;1314;3050346;-65
2022/01/24 06:23:27;;;;;;;26.40;10.60;;;;;;;-3.97;70.62;99991.47;25055;1314;3027936;-69
2022/01/24 06:25:56;;;;;;;27.80;11.00;;;;;;;-4.00;70.22;99981.52;25087;1314;3026272;-70
2022/01/24 06:28:25;;;;;;;20.90;10.20;;;;;;;-3.96;70.16;99988.90;25170;1314;3050771;-66
2022/01/24 06:30:54;;;;;;;15.80;9.30;;;;;;;-3.83;69.61;99981.97;25098;1314;3026732;-68
2022/01/24 06:33:23;;;;;;;18.90;9.50;;;;;;;-3.76;69.21;99984.76;25097;1314;3055074;-70
2022/01/24 06:35:52;;;;;;;16.10;8.00;;;;;;;-3.66;69.21;99978.48;25120;1314;3028935;-67
2022/01/24 06:38:20;;;;;;;16.80;9.40;;;;;;;-3.73;68.67;99984.61;25069;1314;3048896;-72
2022/01/24 06:40:50;;;;;;;17.40;9.50;;;;;;;-3.89;69.31;99986.21;25106;1314;3026495;-67
2022/01/24 06:43:20;;;;;;;15.60;8.70;;;;;;;-3.75;68.75;99982.54;25109;1314;3055894;-71
2022/01/24 06:45:49;;;;;;;21.50;10.50;;;;;;;-3.87;68.69;99988.97;25112;1315;3026419;-68
2022/01/24 06:48:17;;;;;;;21.20;9.90;;;;;;;-3.78;68.96;99989.02;25187;1314;3051500;-64
2022/01/24 06:50:46;;;;;;;21.30;9.70;;;;;;;-3.81;68.65;99986.27;25181;1314;3026571;-68
2022/01/24 06:55:29;;;;;;;24.90;12.00;;;;;;;-3.63;68.40;99984.99;31810;1319;3025905;-64
2022/01/24 06:57:59;;;;;;;26.40;14.90;;;;;;;-3.38;67.68;99987.19;25353;1318;3026835;-70
2022/01/24 07:00:30;;;;;;;19.50;10.50;;;;;;;-3.19;66.66;99986.22;25191;1319;3026844;-65
2022/01/24 07:03:00;;;;;;;23.40;11.10;;;;;;;-3.25;66.83;99983.13;25042;1319;3047431;-71
2022/01/24 07:05:29;;;;;;;18.60;11.00;;;;;;;-3.40;67.22;99986.66;25148;1316;3029292;-69
2022/01/24 07:07:59;;;;;;;17.70;10.00;;;;;;;-3.32;67.30;99982.75;25049;1316;3071127;-65
2022/01/24 07:10:40;;;;;;;20.80;11.60;;;;;;;-3.24;66.95;99981.75;25108;1313;3052243;-72
2022/01/24 07:13:10;;;;;;;20.40;9.90;;;;;;;-3.20;67.41;99987.43;25157;1313;3026310;-70
2022/01/24 07:15:47;;;;;;;25.20;10.70;;;;;;;-3.21;67.27;99993.92;25107;1313;3026457;-67
2022/01/24 07:20:57;;;;;;;19.10;9.60;;;;;;;-3.44;68.95;99992.46;25151;1313;3052413;-73
2022/01/24 07:23:26;;;;;;;20.30;10.00;;;;;;;-2.81;68.42;99996.42;25127;1313;3029488;-71
2022/01/24 07:25:55;;;;;;;19.20;9.00;;;;;;;-2.16;66.62;99996.17;25119;1313;3027661;-74
2022/01/24 07:28:24;;;;;;;19.40;9.90;;;;;;;-2.01;65.94;99991.70;25180;1313;3054213;-67
2022/01/24 07:30:53;;;;;;;19.40;10.00;;;;;;;-1.91;65.41;99993.58;25162;1313;3026981;-66
2022/01/24 07:33:22;;;;;;;20.20;10.30;;;;;;;-2.19;65.30;99998.58;25127;1313;3048180;-67
2022/01/24 07:35:51;;;;;;;23.00;11.10;;;;;;;-2.20;66.22;99997.90;25151;1313;3026834;-72
2022/01/24 07:38:20;;;;;;;26.50;12.10;;;;;;;-2.37;66.30;99999.09;25127;1313;3026474;-68
2022/01/24 07:40:50;;;;;;;26.80;11.80;;;;;;;-2.50;66.47;99998.91;25092;1313;3048887;-67
2022/01/24 07:43:19;;;;;;;25.70;12.10;;;;;;;-2.56;67.00;100001.30;25154;1313;3026305;-66
2022/01/24 07:45:49;;;;;;;22.70;11.30;;;;;;;-2.88;67.65;100006.38;25122;1312;3026602;-71
2022/01/24 07:48:18;;;;;;;23.30;10.60;;;;;;;-2.98;67.78;100009.95;25130;1312;3026045;-67
2022/01/24 07:50:51;;;;;;;27.90;12.10;;;;;;;-3.14;68.85;100011.44;25136;1313;3054647;-70
2022/01/24 07:53:20;;;;;;;16.90;9.70;;;;;;;-3.01;68.55;100015.77;25244;1313;3029211;-72
2022/01/24 07:55:50;;;;;;;20.10;10.80;;;;;;;-3.01;68.36;100017.49;25139;1313;3026227;-67
2022/01/24 07:58:19;;;;;;;24.60;13.00;;;;;;;-2.88;67.71;100011.19;25123;1312;3026477;-66
2022/01/24 08:00:48;;;;;;;21.60;11.50;;;;;;;-2.90;68.24;100015.64;25257;1313;3026340;-67
2022/01/24 08:03:16;;;;;;;23.80;11.50;;;;;;;-2.76;67.75;100016.70;25225;1312;3056745;-69
2022/01/24 08:05:46;;;;;;;20.00;11.40;;;;;;;-2.69;67.59;100019.63;25424;1313;3026843;-70
2022/01/24 08:08:15;;;;;;;18.30;10.70;;;;;;;-2.72;67.86;100025.27;25251;1313;3027365;-68
2022/01/24 08:10:44;;;;;;;22.40;10.70;;;;;;;-2.77;67.72;100026.82;25111;1313;3056166;-70
2022/01/24 08:13:13;;;;;;;20.20;10.60;;;;;;;-2.70;67.71;100027.52;25189;1313;3026121;-67
2022/01/24 08:15:42;;;;;;;24.50;11.10;;;;;;;-2.64;67.74;100030.46;25118;1313;3050901;-66
2022/01/24 08:18:12;;;;;;;17.50;9.60;;;;;;;-2.59;67.36;100024.29;25125;1316;3026158;-69
2022/01/24 08:20:44;;;;;;;21.50;9.90;;;;;;;-2.59;67.23;100023.94;25139;1313;3054345;-70
2022/01/24 08:23:15;;;;;;;24.60;11.50;;;;;;;-2.81;67.79;100024.23;25101;1313;3029123;-68
2022/01/24 08:25:44;;;;;;;20.80;10.30;;;;;;;-2.68;67.83;100028.91;25200;1313;3048757;-69
2022/01/24 08:32:08;;;;;;;22.20;11.40;;;;;;;-2.78;68.50;100028.02;5919;1316;3108026;-69
2022/01/24 08:35:12;;;;;;;22.20;11.40;;;;;;;-2.31;67.31;100022.60;4715;1307;3133466;-68
2022/01/24 08:38:26;;;;;;;30.80;16.80;;;;;;;-1.59;65.08;100023.92;3347;1312;3098976;-69
2022/01/24 08:41:29;;;;;;;30.80;16.80;;;;;;;-1.87;64.83;100022.25;3130;1313;3100791;-70
2022/01/24 08:47:50;;;;;;;27.20;16.30;;;;;;;-1.29;63.86;100018.69;3761;1314;3120736;-71
2022/01/24 08:51:11;;;;;;;27.20;16.30;;;;;;;-1.88;65.07;100019.67;3406;1311;3121169;-68
2022/01/24 08:54:37;;;;;;;27.20;16.30;;;;;;;-2.11;66.02;100018.50;3511;1310;3173641;-70
2022/01/24 08:57:52;;;;;;;27.20;16.30;;;;;;;-1.22;64.24;100021.94;4062;1313;3108548;-71
2022/01/24 09:07:24;;;;;;;27.50;16.90;;;;;;;-1.25;64.55;100010.94;3486;1309;3128321;-71
2022/01/24 09:10:33;;;;;;;27.50;16.90;;;;;;;-0.62;62.52;100002.38;3643;1307;3113094;-72
2022/01/24 09:13:46;;;;;;;27.50;16.90;;;;;;;-0.76;62.43;99998.33;3749;1313;3146660;-69
2022/01/24 09:16:34;;;;;;;26.10;15.90;;;;;;;-0.42;61.48;99994.16;7345;1306;3166375;-71
2022/01/24 09:19:46;;;;;;;26.10;15.90;;;;;;;-0.64;61.58;99989.14;3786;1309;3182697;-72
2022/01/24 09:22:49;;;;;;;25.80;15.50;;;;;;;-0.50;62.10;99990.59;3704;1310;3110007;-72
2022/01/24 09:29:01;;;;;;;28.40;16.20;;;;;;;-0.61;61.81;99987.57;4297;1306;3126115;-70
2022/01/24 09:32:06;;;;;;;19.80;10.60;;;;;;;-0.66;61.49;99985.88;3915;1307;3151383;-69
2022/01/24 09:34:51;;;;;;;19.30;10.20;;;;;;;-1.02;62.47;99998.81;3992;1309;3090530;-71
2022/01/24 09:37:36;;;;;;;20.20;9.50;;;;;;;-1.32;63.74;100003.92;3666;1303;3160681;-71
2022/01/24 09:40:42;;;;;;;14.60;8.90;;;;;;;-1.41;63.98;100000.00;4116;1303;3151450;-71
2022/01/24 09:43:53;;;;;;;21.80;10.20;;;;;;;-1.61;64.76;99998.16;3983;1309;3097786;-72
2022/01/24 09:50:28;;;;;;;27.10;15.40;;;;;;;-1.33;64.62;100004.27;3780;1308;3140824;-71
2022/01/24 09:53:57;;;;;;;;;;;;;;;;;;;;;
2022/01/24 09:56:34;;;;;;;20.20;10.00;;;;;;;-1.43;64.22;99998.48;2848;1314;3142380;-70
2022/01/24 09:59:15;;;;;;;20.20;10.00;;;;;;;-1.14;63.58;99988.38;3504;1310;3128793;-72
2022/01/24 10:09:11;;;;;;;23.70;15.20;;;;;;;-0.70;61.83;99986.77;3769;1303;3143517;-72
2022/01/24 10:26:28;;;;;;;30.90;16.40;;;;;;;0.43;57.73;99985.13;20612;1309;3171587;-69
2022/01/24 10:28:57;;;;;;;23.50;12.80;;;;;;;0.17;58.28;99980.73;25570;1303;3056185;-66
2022/01/24 10:31:28;;;;;;;24.80;12.60;;;;;;;-0.46;59.77;99980.58;25429;1303;3026447;-70
2022/01/24 10:34:27;;;;;;;22.70;11.80;;;;;;;-0.68;61.16;99981.25;25267;1303;3051634;-73
2022/01/24 10:36:57;;;;;;;19.80;11.40;;;;;;;-0.78;61.41;99985.45;25344;1303;3057636;-71
2022/01/24 10:45:11;;;;;;;25.00;12.00;;;;;;;-1.16;62.53;99988.73;25311;1303;3059028;-72
2022/01/24 10:47:45;;;;;;;21.90;11.40;;;;;;;-1.22;62.88;99986.52;25317;1303;3029143;-69
2022/01/24 10:50:32;;;;;;;25.70;11.70;;;;;;;-1.30;63.04;99987.41;25310;1306;3054984;-69
2022/01/24 10:53:15;;;;;;;25.00;11.90;;;;;;;-1.35;63.00;99985.20;25262;1306;3053509;-69
2022/01/24 10:55:46;;;;;;;28.20;12.20;;;;;;;-1.56;63.42;99982.86;25320;1303;3071444;-71
2022/01/24 10:58:18;;;;;;;26.10;11.80;;;;;;;-1.47;63.04;99983.35;25321;1303;3028796;-63
2022/01/24 11:00:47;;;;;;;28.60;12.90;;;;;;;-1.40;62.97;99982.30;25357;1303;3051013;-70
2022/01/24 11:03:18;;;;;;;27.50;13.50;;;;;;;-1.39;63.11;99986.41;25416;1301;3028603;-69
2022/01/24 11:05:47;;;;;;;24.30;11.50;;;;;;;-1.55;63.48;99988.70;25386;1303;3053544;-73
2022/01/24 11:08:17;;;;;;;28.00;10.80;;;;;;;-1.40;63.00;99993.29;25362;1303;3026958;-70
2022/01/24 11:10:51;;;;;;;19.70;10.90;;;;;;;-1.54;63.59;99985.44;25364;1303;3049730;-73
2022/01/24 11:13:21;;;;;;;20.90;11.20;;;;;;;-1.59;63.56;99984.58;25392;1303;3026791;-68
2022/01/24 11:15:57;;;;;;;18.60;9.80;;;;;;;-1.77;63.77;99981.20;25401;1303;3026762;-75
2022/01/24 11:18:26;;;;;;;24.20;11.20;;;;;;;-1.79;63.86;99977.25;25313;1303;3070983;-72
2022/01/24 11:21:02;;;;;;;20.70;10.50;;;;;;;-1.83;63.90;99977.95;25380;1303;3029844;-69
2022/01/24 11:23:31;;;;;;;17.50;9.50;;;;;;;-1.90;63.90;99977.10;25393;1303;3055263;-69
2022/01/24 11:26:01;;;;;;;24.80;11.80;;;;;;;-1.85;63.86;99979.48;25378;1306;3028544;-71
2022/01/24 11:28:32;;;;;;;28.90;12.90;;;;;;;-1.86;64.00;99978.13;25310;1303;3053572;-71
2022/01/24 11:31:11;;;;;;;23.50;12.50;;;;;;;-1.90;64.38;99976.75;25430;1303;3026097;-73
2022/01/24 11:33:42;;;;;;;21.70;11.50;;;;;;;-2.11;64.80;99981.23;25343;1303;3069151;-73
2022/01/24 11:36:11;;;;;;;25.20;11.70;;;;;;;-1.94;64.56;99981.91;25365;1303;3028280;-72
2022/01/24 11:38:42;;;;;;;19.40;10.20;;;;;;;-1.80;63.98;99977.94;25340;1306;3026716;-74
2022/01/24 11:41:31;;;;;;;19.90;11.30;;;;;;;-1.84;64.47;99980.70;25332;1303;3029106;-75
2022/01/24 11:44:09;;;;;;;18.20;10.60;;;;;;;-1.79;64.58;99978.96;25368;1303;3058876;-72
2022/01/24 11:46:48;;;;;;;17.20;9.30;;;;;;;-1.71;64.30;99975.34;25261;1306;3054078;-73
2022/01/24 11:49:20;;;;;;;23.80;11.70;;;;;;;-1.72;64.15;99976.73;25339;1304;3052698;-71
2022/01/24 11:51:51;;;;;;;22.10;11.10;;;;;;;-1.65;64.11;99980.65;25456;1303;3026592;-66
2022/01/24 11:57:17;;;;;;;25.10;11.70;;;;;;;-1.56;63.63;99979.09;25385;1303;3052192;-69
2022/01/24 11:59:46;;;;;;;20.40;10.20;;;;;;;-1.48;63.40;99978.88;25445;1303;3026385;-64
2022/01/24 12:02:20;;;;;;;21.30;10.50;;;;;;;-1.53;63.37;99979.75;25375;1303;3026673;-64
2022/01/24 12:04:49;;;;;;;;;;;;;;;-1.53;63.49;99978.73;25353;1303;3049093;-76
2022/01/24 12:07:28;;;;;;;23.00;10.60;;;;;;;-1.61;63.66;99977.73;25355;1303;3026411;-72
2022/01/24 12:10:44;;;;;;;22.10;10.90;;;;;;;-1.69;63.33;99979.13;25320;1306;3069025;-68
2022/01/24 12:13:36;;;;;;;21.10;10.20;;;;;;;-1.59;62.46;99987.33;25345;1302;3051233;-77
2022/01/24 12:16:10;;;;;;;19.30;9.30;;;;;;;-1.36;61.99;99984.87;25355;1303;3053236;-64
2022/01/24 12:18:39;;;;;;;24.00;11.10;;;;;;;-1.38;61.45;99988.48;25356;1303;3051415;-70
2022/01/24 12:21:13;;;;;;;21.40;9.00;;;;;;;-1.52;61.02;99984.39;25323;1303;3026279;-79
2022/01/24 12:23:53;;;;;;;23.40;10.20;;;;;;;-1.49;60.50;99987.14;25386;1303;3052860;-71
2022/01/24 12:26:25;;;;;;;21.30;7.90;;;;;;;-1.43;60.48;99993.83;25389;1303;3056082;-68
2022/01/24 12:29:14;;;;;;;18.60;8.60;;;;;;;-1.30;59.78;99990.17;25405;1303;3027420;-72
2022/01/24 12:31:51;;;;;;;22.80;9.20;;;;;;;-1.34;59.55;99997.41;25369;1303;3068193;-72
2022/01/24 12:34:38;;;;;;;20.60;9.10;;;;;;;-1.23;59.59;100000.96;25320;1303;3051610;-67
2022/01/24 12:37:12;;;;;;;23.10;10.20;;;;;;;-1.28;59.72;99999.27;25373;1303;3052720;-74
2022/01/24 12:39:45;;;;;;;23.10;11.40;;;;;;;-1.39;60.23;99993.63;25300;1303;3053245;-72
2022/01/24 12:42:26;;;;;;;21.50;11.20;;;;;;;-1.44;61.08;99991.42;25369;1303;3026462;-74
2022/01/24 12:47:45;;;;;;;19.90;10.60;;;;;;;-1.55;62.07;99986.81;25319;1303;3054089;-74
2022/01/24 12:50:14;;;;;;;17.50;8.90;;;;;;;-1.69;62.25;99980.83;25408;1303;3026340;-71
2022/01/24 12:52:43;;;;;;;21.30;11.30;;;;;;;-1.67;62.34;99980.84;25376;1303;3048560;-70
2022/01/24 12:55:12;;;;;;;23.50;11.80;;;;;;;-1.63;62.34;99981.68;25429;1303;3026699;-77
2022/01/24 12:57:41;;;;;;;21.30;11.10;;;;;;;-1.77;62.70;99981.55;25359;1303;3058637;-74
2022/01/24 13:00:12;;;;;;;20.40;10.60;;;;;;;-1.69;62.71;99979.30;25361;1303;3027315;-74
2022/01/24 13:02:41;;;;;;;19.40;10.50;;;;;;;-1.74;62.42;99978.79;25333;1303;3026601;-65
2022/01/24 13:05:20;;;;;;;25.00;10.60;;;;;;;-1.83;62.65;99975.36;25389;1303;3026699;-68
2022/01/24 13:07:52;;;;;;;19.30;9.80;;;;;;;-1.86;62.66;99976.58;25340;1303;3054769;-72
2022/01/24 13:10:32;;;;;;;21.90;10.70;;;;;;;-1.97;62.31;99980.38;25375;1303;3026628;-73
2022/01/24 13:13:06;;;;;;;18.40;9.70;;;;;;;-2.00;62.18;99985.88;25308;1303;3049942;-70
2022/01/24 13:21:26;;;;;;;18.40;9.90;;;;;;;-1.85;61.75;99994.60;25369;1303;3055317;-71
2022/01/24 13:24:00;;;;;;;21.80;10.60;;;;;;;-1.94;60.61;99995.48;25335;1303;3051446;-68
2022/01/24 13:26:28;;;;;;;21.30;9.90;;;;;;;-2.04;60.88;99999.95;25321;1303;3058826;-68
2022/01/24 13:29:04;;;;;;;22.30;9.70;;;;;;;-2.16;60.59;100003.73;25314;1303;3026534;-73
2022/01/24 13:31:33;;;;;;;21.80;9.20;;;;;;;-2.17;60.69;100005.62;25373;1303;3051938;-72
2022/01/24 13:34:08;;;;;;;19.60;8.60;;;;;;;-2.26;61.35;100009.73;25394;1303;3027304;-68
2022/01/24 13:36:38;;;;;;;17.90;9.90;;;;;;;-2.40;62.52;100018.30;25286;1303;3051166;-73
2022/01/24 13:39:07;;;;;;;25.00;11.90;;;;;;;-2.38;63.00;100021.92;25375;1303;3026387;-76
2022/01/24 13:41:36;;;;;;;28.30;12.60;;;;;;;-2.46;64.00;100026.20;25388;1303;3026508;-69
2022/01/24 13:44:05;;;;;;;26.60;13.00;;;;;;;-2.47;64.54;100027.39;25407;1303;3051663;-74
2022/01/24 13:46:39;;;;;;;30.40;14.30;;;;;;;-2.43;65.02;100026.02;25389;1303;3029470;-71
2022/01/24 13:49:11;;;;;;;29.90;14.10;;;;;;;-2.28;64.55;100026.90;25394;1303;3055339;-69
2022/01/24 13:51:43;;;;;;;32.70;13.90;;;;;;;-2.31;65.48;100023.98;25327;1303;3026575;-62
2022/01/24 13:54:21;;;;;;;30.20;13.40;;;;;;;-2.31;65.29;100026.89;25328;1303;3027287;-71
2022/01/24 13:56:56;;;;;;;29.40;13.70;;;;;;;-2.32;65.24;100026.54;25332;1303;3051949;-72
2022/01/24 13:59:25;;;;;;;29.20;13.40;;;;;;;-2.36;65.32;100027.05;25399;1303;3071672;-73
2022/01/24 14:01:59;;;;;;;24.70;12.30;;;;;;;-2.56;66.30;100031.33;25370;1303;3029823;-67
2022/01/24 14:04:41;;;;;;;23.10;10.80;;;;;;;-2.46;66.20;100029.61;25397;1303;3051726;-74
2022/01/24 14:07:20;;;;;;;21.80;11.10;;;;;;;-2.60;65.85;100031.65;25414;1303;3071050;-69
2022/01/24 14:10:01;;;;;;;23.30;10.30;;;;;;;-2.78;66.08;100029.38;25325;1303;3051804;-73
2022/01/24 14:12:42;;;;;;;23.50;11.00;;;;;;;-2.80;66.33;100029.03;25346;1303;3054723;-72
2022/01/24 14:15:22;;;;;;;29.60;11.50;;;;;;;-2.83;66.62;100029.54;25346;1303;3054501;-70
2022/01/24 14:21:13;;;;;;;27.30;13.40;;;;;;;-2.82;66.89;100035.54;25294;1306;3049472;-67